Lochiel, Arizona
Current Conditions -  °F | °C
As of 1:56 AM on Monday 24 Nov 2014 (Local Time) from KALK Reporting Station
Clear Clear  
Wind Chill: 29°   Ceiling: Unl
Heat Index: 36°   Visibility: 10mi
Dew Point: -6°   Wind: 9mph
Humidity: 17%   Direction: 130°SE
Pressure: 30.19"   Gusts: NA
Location:  31.4849°N, 110.609°W
Report Text: KALK 240856Z AUTO 13008KT 10SM CLR 02/M21 A3019 RMK AO2 SLP174 T00221211 50002 TSNO
Loading
Personal Weather Stations






























Interactive Weather Map New forecast layout! Learn more

10-Day Weather Forecast

Advertisements
Track Severe Weather on mobile